sensor_id;sensor_type;location;lat;lon;timestamp;temperature;humidity
12769;DHT22;6448;48.916;8.990;2023-04-21T00:00:00;11.70;55.30
12769;DHT22;6448;48.916;8.990;2023-04-21T00:01:09;11.60;55.30
12769;DHT22;6448;48.916;8.990;2023-04-21T00:02:11;11.80;55.50
12769;DHT22;6448;48.916;8.990;2023-04-21T00:03:15;11.60;55.40
12769;DHT22;6448;48.916;8.990;2023-04-21T00:04:17;11.60;55.40
12769;DHT22;6448;48.916;8.990;2023-04-21T00:05:19;11.60;55.50
12769;DHT22;6448;48.916;8.990;2023-04-21T00:06:20;11.70;55.50
12769;DHT22;6448;48.916;8.990;2023-04-21T00:07:22;11.60;55.40
12769;DHT22;6448;48.916;8.990;2023-04-21T00:08:24;11.60;55.40
12769;DHT22;6448;48.916;8.990;2023-04-21T00:09:27;11.60;55.40
12769;DHT22;6448;48.916;8.990;2023-04-21T00:10:27;11.60;55.40
12769;DHT22;6448;48.916;8.990;2023-04-21T00:11:29;11.70;56.00
12769;DHT22;6448;48.916;8.990;2023-04-21T00:12:30;11.60;55.40
12769;DHT22;6448;48.916;8.990;2023-04-21T00:13:33;11.70;55.50
12769;DHT22;6448;48.916;8.990;2023-04-21T00:14:34;11.60;55.50
12769;DHT22;6448;48.916;8.990;2023-04-21T00:15:36;11.60;55.50
12769;DHT22;6448;48.916;8.990;2023-04-21T00:16:37;11.50;55.40
12769;DHT22;6448;48.916;8.990;2023-04-21T00:17:38;11.60;55.50
12769;DHT22;6448;48.916;8.990;2023-04-21T00:18:40;11.60;55.60
12769;DHT22;6448;48.916;8.990;2023-04-21T00:19:41;11.60;55.50
12769;DHT22;6448;48.916;8.990;2023-04-21T00:20:42;11.50;55.50
12769;DHT22;6448;48.916;8.990;2023-04-21T00:21:44;11.60;55.50
12769;DHT22;6448;48.916;8.990;2023-04-21T00:22:45;11.50;55.40
12769;DHT22;6448;48.916;8.990;2023-04-21T00:23:47;11.50;55.50
12769;DHT22;6448;48.916;8.990;2023-04-21T00:24:49;11.50;55.50
12769;DHT22;6448;48.916;8.990;2023-04-21T00:25:51;11.50;55.50
12769;DHT22;6448;48.916;8.990;2023-04-21T00:26:52;11.50;55.50
12769;DHT22;6448;48.916;8.990;2023-04-21T00:27:53;11.50;55.60
12769;DHT22;6448;48.916;8.990;2023-04-21T00:28:56;11.50;55.60
12769;DHT22;6448;48.916;8.990;2023-04-21T00:29:58;11.50;55.70
12769;DHT22;6448;48.916;8.990;2023-04-21T00:30:58;11.40;55.70
12769;DHT22;6448;48.916;8.990;2023-04-21T00:32:00;11.40;55.70
12769;DHT22;6448;48.916;8.990;2023-04-21T00:33:04;11.40;55.70
12769;DHT22;6448;48.916;8.990;2023-04-21T00:34:06;11.50;55.80
12769;DHT22;6448;48.916;8.990;2023-04-21T00:35:08;11.40;55.80
12769;DHT22;6448;48.916;8.990;2023-04-21T00:36:10;11.40;55.80
12769;DHT22;6448;48.916;8.990;2023-04-21T00:37:10;11.40;55.80
12769;DHT22;6448;48.916;8.990;2023-04-21T00:38:13;11.40;55.90
12769;DHT22;6448;48.916;8.990;2023-04-21T00:39:14;11.40;56.10
12769;DHT22;6448;48.916;8.990;2023-04-21T00:40:16;11.40;56.10
12769;DHT22;6448;48.916;8.990;2023-04-21T00:41:16;11.40;56.10
12769;DHT22;6448;48.916;8.990;2023-04-21T00:42:18;11.40;56.00
12769;DHT22;6448;48.916;8.990;2023-04-21T00:43:19;11.40;56.10
12769;DHT22;6448;48.916;8.990;2023-04-21T00:44:22;11.60;56.10
12769;DHT22;6448;48.916;8.990;2023-04-21T00:45:23;11.30;55.90
12769;DHT22;6448;48.916;8.990;2023-04-21T00:46:24;11.40;55.90
12769;DHT22;6448;48.916;8.990;2023-04-21T00:47:25;11.50;55.90
12769;DHT22;6448;48.916;8.990;2023-04-21T00:48:27;11.30;55.80
12769;DHT22;6448;48.916;8.990;2023-04-21T00:49:28;11.40;55.80
12769;DHT22;6448;48.916;8.990;2023-04-21T00:50:30;11.30;55.80
12769;DHT22;6448;48.916;8.990;2023-04-21T00:51:33;11.50;55.90
12769;DHT22;6448;48.916;8.990;2023-04-21T00:52:36;11.30;55.80
12769;DHT22;6448;48.916;8.990;2023-04-21T00:53:38;11.30;55.80
12769;DHT22;6448;48.916;8.990;2023-04-21T00:54:40;11.30;55.80
12769;DHT22;6448;48.916;8.990;2023-04-21T00:55:41;11.30;55.80
12769;DHT22;6448;48.916;8.990;2023-04-21T00:56:43;11.30;55.80
12769;DHT22;6448;48.916;8.990;2023-04-21T00:57:44;11.30;55.80
12769;DHT22;6448;48.916;8.990;2023-04-21T00:58:45;11.30;55.80
12769;DHT22;6448;48.916;8.990;2023-04-21T00:59:49;11.20;55.80
12769;DHT22;6448;48.916;8.990;2023-04-21T01:00:51;11.20;55.90
12769;DHT22;6448;48.916;8.990;2023-04-21T01:01:52;11.20;55.90
12769;DHT22;6448;48.916;8.990;2023-04-21T01:02:55;11.20;55.90
12769;DHT22;6448;48.916;8.990;2023-04-21T01:03:57;11.20;55.90
12769;DHT22;6448;48.916;8.990;2023-04-21T01:04:59;11.20;55.90
12769;DHT22;6448;48.916;8.990;2023-04-21T01:06:00;11.20;55.90
12769;DHT22;6448;48.916;8.990;2023-04-21T01:07:03;11.20;55.90
12769;DHT22;6448;48.916;8.990;2023-04-21T01:08:05;11.20;56.00
12769;DHT22;6448;48.916;8.990;2023-04-21T01:09:07;11.20;56.00
12769;DHT22;6448;48.916;8.990;2023-04-21T01:10:10;11.20;56.00
12769;DHT22;6448;48.916;8.990;2023-04-21T01:11:13;11.20;56.00
12769;DHT22;6448;48.916;8.990;2023-04-21T01:12:14;11.20;56.00
12769;DHT22;6448;48.916;8.990;2023-04-21T01:13:18;11.20;56.10
12769;DHT22;6448;48.916;8.990;2023-04-21T01:14:19;11.20;56.10
12769;DHT22;6448;48.916;8.990;2023-04-21T01:15:22;11.50;56.20
12769;DHT22;6448;48.916;8.990;2023-04-21T01:16:23;11.20;56.10
12769;DHT22;6448;48.916;8.990;2023-04-21T01:17:27;11.20;56.10
12769;DHT22;6448;48.916;8.990;2023-04-21T01:18:29;11.20;56.10
12769;DHT22;6448;48.916;8.990;2023-04-21T01:19:34;11.20;56.10
12769;DHT22;6448;48.916;8.990;2023-04-21T01:20:35;11.20;56.10
12769;DHT22;6448;48.916;8.990;2023-04-21T01:21:41;11.20;56.10
12769;DHT22;6448;48.916;8.990;2023-04-21T01:22:42;11.10;56.00
12769;DHT22;6448;48.916;8.990;2023-04-21T01:23:45;11.30;56.10
12769;DHT22;6448;48.916;8.990;2023-04-21T01:24:47;11.10;56.00
12769;DHT22;6448;48.916;8.990;2023-04-21T01:25:50;11.20;56.00
12769;DHT22;6448;48.916;8.990;2023-04-21T01:26:50;11.10;56.00
12769;DHT22;6448;48.916;8.990;2023-04-21T01:27:52;11.10;56.10
12769;DHT22;6448;48.916;8.990;2023-04-21T01:28:56;11.10;56.10
12769;DHT22;6448;48.916;8.990;2023-04-21T01:29:57;10.90;56.10
12769;DHT22;6448;48.916;8.990;2023-04-21T01:31:01;11.10;56.20
12769;DHT22;6448;48.916;8.990;2023-04-21T01:32:04;11.10;56.30
12769;DHT22;6448;48.916;8.990;2023-04-21T01:33:05;11.10;56.40
12769;DHT22;6448;48.916;8.990;2023-04-21T01:34:07;11.10;56.40
12769;DHT22;6448;48.916;8.990;2023-04-21T01:35:08;11.10;56.90
12769;DHT22;6448;48.916;8.990;2023-04-21T01:36:12;11.10;56.20
12769;DHT22;6448;48.916;8.990;2023-04-21T01:37:16;11.10;56.20
12769;DHT22;6448;48.916;8.990;2023-04-21T01:38:18;11.00;56.20
12769;DHT22;6448;48.916;8.990;2023-04-21T01:39:19;11.00;56.30
12769;DHT22;6448;48.916;8.990;2023-04-21T01:40:21;11.10;56.40
12769;DHT22;6448;48.916;8.990;2023-04-21T01:41:22;11.10;56.40
12769;DHT22;6448;48.916;8.990;2023-04-21T01:42:26;11.00;56.30
12769;DHT22;6448;48.916;8.990;2023-04-21T01:43:27;11.00;56.30
12769;DHT22;6448;48.916;8.990;2023-04-21T01:44:30;11.00;56.30
12769;DHT22;6448;48.916;8.990;2023-04-21T01:45:32;11.00;56.30
12769;DHT22;6448;48.916;8.990;2023-04-21T01:46:34;11.00;56.30
12769;DHT22;6448;48.916;8.990;2023-04-21T01:47:36;11.00;56.30
12769;DHT22;6448;48.916;8.990;2023-04-21T01:48:40;11.00;56.20
12769;DHT22;6448;48.916;8.990;2023-04-21T01:49:40;11.20;56.30
12769;DHT22;6448;48.916;8.990;2023-04-21T01:50:42;11.00;56.20
12769;DHT22;6448;48.916;8.990;2023-04-21T01:51:44;11.00;56.20
12769;DHT22;6448;48.916;8.990;2023-04-21T01:52:47;11.00;56.20
12769;DHT22;6448;48.916;8.990;2023-04-21T01:53:49;11.00;56.10
12769;DHT22;6448;48.916;8.990;2023-04-21T01:54:50;11.00;56.10
12769;DHT22;6448;48.916;8.990;2023-04-21T01:55:51;10.90;56.10
12769;DHT22;6448;48.916;8.990;2023-04-21T01:56:53;11.10;56.20
12769;DHT22;6448;48.916;8.990;2023-04-21T01:57:54;11.00;56.10
12769;DHT22;6448;48.916;8.990;2023-04-21T01:58:57;10.90;56.00
12769;DHT22;6448;48.916;8.990;2023-04-21T01:59:58;10.90;56.10
12769;DHT22;6448;48.916;8.990;2023-04-21T02:01:01;10.90;56.10
12769;DHT22;6448;48.916;8.990;2023-04-21T02:02:02;10.80;56.00
12769;DHT22;6448;48.916;8.990;2023-04-21T02:03:06;10.90;56.10
12769;DHT22;6448;48.916;8.990;2023-04-21T02:04:07;10.90;56.10
12769;DHT22;6448;48.916;8.990;2023-04-21T02:05:09;10.90;56.10
12769;DHT22;6448;48.916;8.990;2023-04-21T02:06:10;10.90;56.10
12769;DHT22;6448;48.916;8.990;2023-04-21T02:07:14;10.80;56.10
12769;DHT22;6448;48.916;8.990;2023-04-21T02:08:17;10.90;56.10
12769;DHT22;6448;48.916;8.990;2023-04-21T02:09:19;10.90;56.00
12769;DHT22;6448;48.916;8.990;2023-04-21T02:10:20;10.80;56.00
12769;DHT22;6448;48.916;8.990;2023-04-21T02:11:22;10.80;56.00
12769;DHT22;6448;48.916;8.990;2023-04-21T02:12:24;10.80;56.00
12769;DHT22;6448;48.916;8.990;2023-04-21T02:13:26;10.80;56.00
12769;DHT22;6448;48.916;8.990;2023-04-21T02:14:27;10.80;56.00
12769;DHT22;6448;48.916;8.990;2023-04-21T02:15:28;10.80;55.80
12769;DHT22;6448;48.916;8.990;2023-04-21T02:16:29;10.80;55.80
12769;DHT22;6448;48.916;8.990;2023-04-21T02:17:31;11.00;55.90
12769;DHT22;6448;48.916;8.990;2023-04-21T02:18:32;10.80;55.60
12769;DHT22;6448;48.916;8.990;2023-04-21T02:19:34;10.80;55.60
12769;DHT22;6448;48.916;8.990;2023-04-21T02:20:35;10.80;55.50
12769;DHT22;6448;48.916;8.990;2023-04-21T02:21:37;10.80;55.50
12769;DHT22;6448;48.916;8.990;2023-04-21T02:22:38;10.80;55.50
12769;DHT22;6448;48.916;8.990;2023-04-21T02:23:41;10.70;55.50
12769;DHT22;6448;48.916;8.990;2023-04-21T02:24:42;10.70;55.50
12769;DHT22;6448;48.916;8.990;2023-04-21T02:25:45;10.70;55.50
12769;DHT22;6448;48.916;8.990;2023-04-21T02:26:46;10.70;55.50
12769;DHT22;6448;48.916;8.990;2023-04-21T02:27:48;10.70;55.50
12769;DHT22;6448;48.916;8.990;2023-04-21T02:28:49;10.80;55.70
12769;DHT22;6448;48.916;8.990;2023-04-21T02:29:51;10.70;55.60
12769;DHT22;6448;48.916;8.990;2023-04-21T02:30:51;10.70;55.60
12769;DHT22;6448;48.916;8.990;2023-04-21T02:31:53;10.70;55.70
12769;DHT22;6448;48.916;8.990;2023-04-21T02:32:54;10.60;55.60
12769;DHT22;6448;48.916;8.990;2023-04-21T02:33:56;10.60;55.60
12769;DHT22;6448;48.916;8.990;2023-04-21T02:34:56;10.60;55.50
12769;DHT22;6448;48.916;8.990;2023-04-21T02:35:58;10.60;55.50
12769;DHT22;6448;48.916;8.990;2023-04-21T02:36:59;10.60;55.50
12769;DHT22;6448;48.916;8.990;2023-04-21T02:38:01;10.60;55.50
12769;DHT22;6448;48.916;8.990;2023-04-21T02:39:08;10.60;55.40
12769;DHT22;6448;48.916;8.990;2023-04-21T02:40:12;10.60;55.40
12769;DHT22;6448;48.916;8.990;2023-04-21T02:41:13;10.60;55.30
12769;DHT22;6448;48.916;8.990;2023-04-21T02:42:14;10.60;55.40
12769;DHT22;6448;48.916;8.990;2023-04-21T02:43:15;10.60;55.40
12769;DHT22;6448;48.916;8.990;2023-04-21T02:44:17;10.50;55.30
12769;DHT22;6448;48.916;8.990;2023-04-21T02:45:18;10.60;55.30
12769;DHT22;6448;48.916;8.990;2023-04-21T02:46:20;10.50;55.30
12769;DHT22;6448;48.916;8.990;2023-04-21T02:47:21;10.60;55.30
12769;DHT22;6448;48.916;8.990;2023-04-21T02:48:23;10.50;55.30
12769;DHT22;6448;48.916;8.990;2023-04-21T02:49:25;10.50;55.30
12769;DHT22;6448;48.916;8.990;2023-04-21T02:50:27;10.50;55.30
12769;DHT22;6448;48.916;8.990;2023-04-21T02:51:27;10.50;55.30
12769;DHT22;6448;48.916;8.990;2023-04-21T02:52:29;10.40;55.30
12769;DHT22;6448;48.916;8.990;2023-04-21T02:53:30;10.40;55.30
12769;DHT22;6448;48.916;8.990;2023-04-21T02:54:33;10.40;55.30
12769;DHT22;6448;48.916;8.990;2023-04-21T02:55:34;10.40;55.30
12769;DHT22;6448;48.916;8.990;2023-04-21T02:56:36;10.40;55.40
12769;DHT22;6448;48.916;8.990;2023-04-21T02:57:37;10.40;55.40
12769;DHT22;6448;48.916;8.990;2023-04-21T02:58:40;10.40;55.50
12769;DHT22;6448;48.916;8.990;2023-04-21T02:59:41;10.40;55.60
12769;DHT22;6448;48.916;8.990;2023-04-21T03:00:43;10.40;55.60
12769;DHT22;6448;48.916;8.990;2023-04-21T03:01:44;10.40;55.60
12769;DHT22;6448;48.916;8.990;2023-04-21T03:02:47;10.40;55.70
12769;DHT22;6448;48.916;8.990;2023-04-21T03:03:50;10.40;55.70
12769;DHT22;6448;48.916;8.990;2023-04-21T03:04:51;10.40;56.30
12769;DHT22;6448;48.916;8.990;2023-04-21T03:05:56;10.40;55.70
12769;DHT22;6448;48.916;8.990;2023-04-21T03:06:57;10.30;55.70
12769;DHT22;6448;48.916;8.990;2023-04-21T03:07:58;10.50;55.80
12769;DHT22;6448;48.916;8.990;2023-04-21T03:09:00;10.30;55.70
12769;DHT22;6448;48.916;8.990;2023-04-21T03:10:02;10.30;55.60
12769;DHT22;6448;48.916;8.990;2023-04-21T03:11:04;10.30;55.60
12769;DHT22;6448;48.916;8.990;2023-04-21T03:12:05;10.30;55.60
12769;DHT22;6448;48.916;8.990;2023-04-21T03:13:09;10.30;55.50
12769;DHT22;6448;48.916;8.990;2023-04-21T03:14:11;10.30;55.60
12769;DHT22;6448;48.916;8.990;2023-04-21T03:15:13;10.30;55.60
12769;DHT22;6448;48.916;8.990;2023-04-21T03:16:14;10.40;55.50
12769;DHT22;6448;48.916;8.990;2023-04-21T03:17:18;10.30;55.40
12769;DHT22;6448;48.916;8.990;2023-04-21T03:18:18;10.20;55.40
12769;DHT22;6448;48.916;8.990;2023-04-21T03:19:20;10.20;55.50
12769;DHT22;6448;48.916;8.990;2023-04-21T03:20:21;10.20;55.50
12769;DHT22;6448;48.916;8.990;2023-04-21T03:21:23;10.20;55.60
12769;DHT22;6448;48.916;8.990;2023-04-21T03:22:24;10.30;56.10
12769;DHT22;6448;48.916;8.990;2023-04-21T03:23:25;10.20;55.40
12769;DHT22;6448;48.916;8.990;2023-04-21T03:24:26;10.20;55.30
12769;DHT22;6448;48.916;8.990;2023-04-21T03:25:29;10.20;55.30
12769;DHT22;6448;48.916;8.990;2023-04-21T03:26:30;10.10;55.30
12769;DHT22;6448;48.916;8.990;2023-04-21T03:27:32;10.10;55.40
12769;DHT22;6448;48.916;8.990;2023-04-21T03:28:33;10.20;55.40
12769;DHT22;6448;48.916;8.990;2023-04-21T03:29:36;10.10;55.30
12769;DHT22;6448;48.916;8.990;2023-04-21T03:30:37;10.10;55.20
12769;DHT22;6448;48.916;8.990;2023-04-21T03:31:39;10.10;55.20
12769;DHT22;6448;48.916;8.990;2023-04-21T03:32:40;10.10;55.30
12769;DHT22;6448;48.916;8.990;2023-04-21T03:33:42;10.10;55.30
12769;DHT22;6448;48.916;8.990;2023-04-21T03:34:43;10.00;55.30
12769;DHT22;6448;48.916;8.990;2023-04-21T03:35:45;10.00;55.40
12769;DHT22;6448;48.916;8.990;2023-04-21T03:36:46;10.00;55.40
12769;DHT22;6448;48.916;8.990;2023-04-21T03:37:48;10.20;55.50
12769;DHT22;6448;48.916;8.990;2023-04-21T03:38:49;10.00;55.50
12769;DHT22;6448;48.916;8.990;2023-04-21T03:39:51;10.00;55.60
12769;DHT22;6448;48.916;8.990;2023-04-21T03:40:54;10.00;55.60
12769;DHT22;6448;48.916;8.990;2023-04-21T03:41:56;10.00;55.60
12769;DHT22;6448;48.916;8.990;2023-04-21T03:42:57;10.00;55.60
12769;DHT22;6448;48.916;8.990;2023-04-21T03:43:59;9.90;55.60
12769;DHT22;6448;48.916;8.990;2023-04-21T03:45:01;9.90;55.60
12769;DHT22;6448;48.916;8.990;2023-04-21T03:46:06;9.90;55.60
12769;DHT22;6448;48.916;8.990;2023-04-21T03:47:07;9.90;56.10
12769;DHT22;6448;48.916;8.990;2023-04-21T03:48:09;9.90;56.20
12769;DHT22;6448;48.916;8.990;2023-04-21T03:49:10;9.90;55.60
12769;DHT22;6448;48.916;8.990;2023-04-21T03:50:12;9.90;55.70
12769;DHT22;6448;48.916;8.990;2023-04-21T03:51:13;9.90;55.70
12769;DHT22;6448;48.916;8.990;2023-04-21T03:52:15;9.80;55.70
12769;DHT22;6448;48.916;8.990;2023-04-21T03:53:16;9.90;55.90
12769;DHT22;6448;48.916;8.990;2023-04-21T03:54:17;9.80;55.80
12769;DHT22;6448;48.916;8.990;2023-04-21T03:55:18;9.80;55.90
12769;DHT22;6448;48.916;8.990;2023-04-21T03:56:21;9.80;55.90
12769;DHT22;6448;48.916;8.990;2023-04-21T03:57:22;9.80;55.90
12769;DHT22;6448;48.916;8.990;2023-04-21T03:58:24;9.80;55.90
12769;DHT22;6448;48.916;8.990;2023-04-21T03:59:25;9.80;55.80
12769;DHT22;6448;48.916;8.990;2023-04-21T04:00:27;9.70;55.80
12769;DHT22;6448;48.916;8.990;2023-04-21T04:01:27;9.80;55.80
12769;DHT22;6448;48.916;8.990;2023-04-21T04:02:29;9.80;55.90
12769;DHT22;6448;48.916;8.990;2023-04-21T04:03:30;9.70;55.80
12769;DHT22;6448;48.916;8.990;2023-04-21T04:04:32;9.80;56.00
12769;DHT22;6448;48.916;8.990;2023-04-21T04:05:34;9.80;56.00
12769;DHT22;6448;48.916;8.990;2023-04-21T04:06:36;9.70;56.00
12769;DHT22;6448;48.916;8.990;2023-04-21T04:07:37;9.70;56.10
12769;DHT22;6448;48.916;8.990;2023-04-21T04:08:38;9.70;56.10
12769;DHT22;6448;48.916;8.990;2023-04-21T04:09:39;9.70;56.10
12769;DHT22;6448;48.916;8.990;2023-04-21T04:10:41;9.70;56.20
12769;DHT22;6448;48.916;8.990;2023-04-21T04:11:43;9.70;56.20
12769;DHT22;6448;48.916;8.990;2023-04-21T04:12:45;9.70;56.20
12769;DHT22;6448;48.916;8.990;2023-04-21T04:13:46;9.70;56.20
12769;DHT22;6448;48.916;8.990;2023-04-21T04:14:48;9.70;56.20
12769;DHT22;6448;48.916;8.990;2023-04-21T04:15:48;9.70;56.20
12769;DHT22;6448;48.916;8.990;2023-04-21T04:16:50;9.90;56.30
12769;DHT22;6448;48.916;8.990;2023-04-21T04:17:52;9.70;56.10
12769;DHT22;6448;48.916;8.990;2023-04-21T04:18:53;10.00;56.30
12769;DHT22;6448;48.916;8.990;2023-04-21T04:19:54;9.70;56.20
12769;DHT22;6448;48.916;8.990;2023-04-21T04:20:55;9.70;56.20
12769;DHT22;6448;48.916;8.990;2023-04-21T04:21:58;9.70;56.20
12769;DHT22;6448;48.916;8.990;2023-04-21T04:22:59;9.70;56.20
12769;DHT22;6448;48.916;8.990;2023-04-21T04:24:00;9.70;56.20
12769;DHT22;6448;48.916;8.990;2023-04-21T04:25:02;9.70;56.20
12769;DHT22;6448;48.916;8.990;2023-04-21T04:26:04;9.70;56.20
12769;DHT22;6448;48.916;8.990;2023-04-21T04:27:07;9.70;56.20
12769;DHT22;6448;48.916;8.990;2023-04-21T04:28:09;9.70;56.20
12769;DHT22;6448;48.916;8.990;2023-04-21T04:29:10;9.70;56.20
12769;DHT22;6448;48.916;8.990;2023-04-21T04:30:13;9.70;56.30
12769;DHT22;6448;48.916;8.990;2023-04-21T04:31:14;9.70;56.30
12769;DHT22;6448;48.916;8.990;2023-04-21T04:32:16;9.70;56.30
12769;DHT22;6448;48.916;8.990;2023-04-21T04:33:17;9.80;56.50
12769;DHT22;6448;48.916;8.990;2023-04-21T04:34:19;9.70;56.50
12769;DHT22;6448;48.916;8.990;2023-04-21T04:35:20;9.70;56.50
12769;DHT22;6448;48.916;8.990;2023-04-21T04:36:22;9.70;56.50
12769;DHT22;6448;48.916;8.990;2023-04-21T04:37:23;9.70;56.60
12769;DHT22;6448;48.916;8.990;2023-04-21T04:38:25;9.80;56.60
12769;DHT22;6448;48.916;8.990;2023-04-21T04:39:27;9.70;56.60
12769;DHT22;6448;48.916;8.990;2023-04-21T04:40:29;9.70;56.60
12769;DHT22;6448;48.916;8.990;2023-04-21T04:41:30;9.70;56.60
12769;DHT22;6448;48.916;8.990;2023-04-21T04:42:34;9.70;56.60
12769;DHT22;6448;48.916;8.990;2023-04-21T04:43:36;9.70;56.60
12769;DHT22;6448;48.916;8.990;2023-04-21T04:44:38;9.70;56.60
12769;DHT22;6448;48.916;8.990;2023-04-21T04:45:40;9.90;56.70
12769;DHT22;6448;48.916;8.990;2023-04-21T04:46:43;9.70;56.60
12769;DHT22;6448;48.916;8.990;2023-04-21T04:47:44;9.70;56.60
12769;DHT22;6448;48.916;8.990;2023-04-21T04:48:46;9.70;56.70
12769;DHT22;6448;48.916;8.990;2023-04-21T04:49:51;9.70;56.70
12769;DHT22;6448;48.916;8.990;2023-04-21T04:50:53;9.70;56.70
12769;DHT22;6448;48.916;8.990;2023-04-21T04:51:54;9.80;56.70
12769;DHT22;6448;48.916;8.990;2023-04-21T04:52:56;9.70;56.70
12769;DHT22;6448;48.916;8.990;2023-04-21T04:53:57;9.70;56.70
12769;DHT22;6448;48.916;8.990;2023-04-21T04:54:58;9.70;56.70
12769;DHT22;6448;48.916;8.990;2023-04-21T04:55:59;9.80;56.80
12769;DHT22;6448;48.916;8.990;2023-04-21T04:57:01;9.80;56.80
12769;DHT22;6448;48.916;8.990;2023-04-21T04:58:03;9.80;56.80
12769;DHT22;6448;48.916;8.990;2023-04-21T04:59:05;9.80;56.80
12769;DHT22;6448;48.916;8.990;2023-04-21T05:00:07;9.80;56.80
12769;DHT22;6448;48.916;8.990;2023-04-21T05:01:11;9.70;56.80
12769;DHT22;6448;48.916;8.990;2023-04-21T05:02:12;9.70;56.70
12769;DHT22;6448;48.916;8.990;2023-04-21T05:03:14;9.90;56.80
12769;DHT22;6448;48.916;8.990;2023-04-21T05:04:15;9.60;56.60
12769;DHT22;6448;48.916;8.990;2023-04-21T05:05:16;9.70;56.60
12769;DHT22;6448;48.916;8.990;2023-04-21T05:06:17;9.70;56.60
12769;DHT22;6448;48.916;8.990;2023-04-21T05:07:19;9.80;56.70
12769;DHT22;6448;48.916;8.990;2023-04-21T05:08:20;9.80;56.70
12769;DHT22;6448;48.916;8.990;2023-04-21T05:09:21;9.80;56.70
12769;DHT22;6448;48.916;8.990;2023-04-21T05:10:22;9.70;56.70
12769;DHT22;6448;48.916;8.990;2023-04-21T05:11:24;9.70;56.80
12769;DHT22;6448;48.916;8.990;2023-04-21T05:12:25;9.70;56.90
12769;DHT22;6448;48.916;8.990;2023-04-21T05:13:28;9.80;56.90
12769;DHT22;6448;48.916;8.990;2023-04-21T05:14:29;9.80;56.90
12769;DHT22;6448;48.916;8.990;2023-04-21T05:15:31;9.70;56.90
12769;DHT22;6448;48.916;8.990;2023-04-21T05:16:31;9.80;57.00
12769;DHT22;6448;48.916;8.990;2023-04-21T05:17:34;9.70;57.00
12769;DHT22;6448;48.916;8.990;2023-04-21T05:18:34;9.80;57.00
12769;DHT22;6448;48.916;8.990;2023-04-21T05:19:36;9.70;56.90
12769;DHT22;6448;48.916;8.990;2023-04-21T05:20:40;9.70;56.90
12769;DHT22;6448;48.916;8.990;2023-04-21T05:21:41;9.80;57.00
12769;DHT22;6448;48.916;8.990;2023-04-21T05:22:42;9.80;57.00
12769;DHT22;6448;48.916;8.990;2023-04-21T05:23:44;9.80;57.00
12769;DHT22;6448;48.916;8.990;2023-04-21T05:24:45;9.70;57.00
12769;DHT22;6448;48.916;8.990;2023-04-21T05:25:46;9.70;57.10
12769;DHT22;6448;48.916;8.990;2023-04-21T05:26:47;9.80;57.20
12769;DHT22;6448;48.916;8.990;2023-04-21T05:27:49;9.80;57.20
12769;DHT22;6448;48.916;8.990;2023-04-21T05:28:52;9.80;57.20
12769;DHT22;6448;48.916;8.990;2023-04-21T05:29:53;9.80;57.20
12769;DHT22;6448;48.916;8.990;2023-04-21T05:30:55;9.80;57.30
12769;DHT22;6448;48.916;8.990;2023-04-21T05:31:55;9.80;57.30
12769;DHT22;6448;48.916;8.990;2023-04-21T05:32:57;9.80;57.30
12769;DHT22;6448;48.916;8.990;2023-04-21T05:33:59;9.80;57.30
12769;DHT22;6448;48.916;8.990;2023-04-21T05:35:00;9.80;57.30
12769;DHT22;6448;48.916;8.990;2023-04-21T05:36:05;9.80;57.40
12769;DHT22;6448;48.916;8.990;2023-04-21T05:37:09;9.80;57.60
12769;DHT22;6448;48.916;8.990;2023-04-21T05:38:11;9.80;57.60
12769;DHT22;6448;48.916;8.990;2023-04-21T05:39:12;9.80;57.60
12769;DHT22;6448;48.916;8.990;2023-04-21T05:40:13;9.80;57.60
12769;DHT22;6448;48.916;8.990;2023-04-21T05:41:15;9.80;57.60
12769;DHT22;6448;48.916;8.990;2023-04-21T05:42:16;9.80;58.20
12769;DHT22;6448;48.916;8.990;2023-04-21T05:43:18;9.80;57.60
12769;DHT22;6448;48.916;8.990;2023-04-21T05:44:20;9.80;57.60
12769;DHT22;6448;48.916;8.990;2023-04-21T05:45:22;9.90;57.70
12769;DHT22;6448;48.916;8.990;2023-04-21T05:46:23;9.80;57.60
12769;DHT22;6448;48.916;8.990;2023-04-21T05:47:25;9.80;57.60
12769;DHT22;6448;48.916;8.990;2023-04-21T05:48:26;9.80;57.60
12769;DHT22;6448;48.916;8.990;2023-04-21T05:49:28;9.80;57.70
12769;DHT22;6448;48.916;8.990;2023-04-21T05:50:28;9.90;57.80
12769;DHT22;6448;48.916;8.990;2023-04-21T05:51:33;9.90;57.80
12769;DHT22;6448;48.916;8.990;2023-04-21T05:52:34;9.90;57.80
12769;DHT22;6448;48.916;8.990;2023-04-21T05:53:37;9.90;57.80
12769;DHT22;6448;48.916;8.990;2023-04-21T05:54:38;9.90;57.90
12769;DHT22;6448;48.916;8.990;2023-04-21T05:55:40;9.90;57.90
12769;DHT22;6448;48.916;8.990;2023-04-21T05:56:41;9.90;58.00
12769;DHT22;6448;48.916;8.990;2023-04-21T05:57:42;9.90;58.10
12769;DHT22;6448;48.916;8.990;2023-04-21T05:58:43;9.90;58.10
12769;DHT22;6448;48.916;8.990;2023-04-21T05:59:46;9.90;58.10
12769;DHT22;6448;48.916;8.990;2023-04-21T06:00:47;10.00;58.20
12769;DHT22;6448;48.916;8.990;2023-04-21T06:01:49;10.00;58.20
12769;DHT22;6448;48.916;8.990;2023-04-21T06:02:50;9.90;58.20
12769;DHT22;6448;48.916;8.990;2023-04-21T06:03:52;10.00;58.30
12769;DHT22;6448;48.916;8.990;2023-04-21T06:04:53;10.00;58.30
12769;DHT22;6448;48.916;8.990;2023-04-21T06:05:54;10.00;58.30
12769;DHT22;6448;48.916;8.990;2023-04-21T06:06:56;10.00;58.30
12769;DHT22;6448;48.916;8.990;2023-04-21T06:07:57;10.00;58.30
12769;DHT22;6448;48.916;8.990;2023-04-21T06:08:59;10.00;58.40
12769;DHT22;6448;48.916;8.990;2023-04-21T06:10:00;10.00;58.40
12769;DHT22;6448;48.916;8.990;2023-04-21T06:11:01;10.00;58.40
12769;DHT22;6448;48.916;8.990;2023-04-21T06:12:03;10.00;58.50
12769;DHT22;6448;48.916;8.990;2023-04-21T06:13:04;10.00;58.50
12769;DHT22;6448;48.916;8.990;2023-04-21T06:14:05;10.00;58.50
12769;DHT22;6448;48.916;8.990;2023-04-21T06:15:09;10.00;58.50
12769;DHT22;6448;48.916;8.990;2023-04-21T06:16:10;10.10;58.50
12769;DHT22;6448;48.916;8.990;2023-04-21T06:17:15;10.10;58.50
12769;DHT22;6448;48.916;8.990;2023-04-21T06:18:16;10.10;58.50
12769;DHT22;6448;48.916;8.990;2023-04-21T06:19:18;10.10;58.50
12769;DHT22;6448;48.916;8.990;2023-04-21T06:20:18;10.10;58.50
12769;DHT22;6448;48.916;8.990;2023-04-21T06:21:20;10.10;58.50
12769;DHT22;6448;48.916;8.990;2023-04-21T06:22:21;10.20;58.50
12769;DHT22;6448;48.916;8.990;2023-04-21T06:23:23;10.10;58.50
12769;DHT22;6448;48.916;8.990;2023-04-21T06:24:24;10.10;58.50
12769;DHT22;6448;48.916;8.990;2023-04-21T06:25:25;10.10;58.50
12769;DHT22;6448;48.916;8.990;2023-04-21T06:26:26;10.10;58.60
12769;DHT22;6448;48.916;8.990;2023-04-21T06:27:28;10.20;58.70
12769;DHT22;6448;48.916;8.990;2023-04-21T06:28:29;10.20;58.70
12769;DHT22;6448;48.916;8.990;2023-04-21T06:29:31;10.20;58.80
12769;DHT22;6448;48.916;8.990;2023-04-21T06:30:33;10.20;58.80
12769;DHT22;6448;48.916;8.990;2023-04-21T06:31:35;10.20;58.80
12769;DHT22;6448;48.916;8.990;2023-04-21T06:32:36;10.20;58.70
12769;DHT22;6448;48.916;8.990;2023-04-21T06:33:37;10.20;58.70
12769;DHT22;6448;48.916;8.990;2023-04-21T06:34:38;10.20;58.70
12769;DHT22;6448;48.916;8.990;2023-04-21T06:35:40;10.30;58.70
12769;DHT22;6448;48.916;8.990;2023-04-21T06:36:41;10.20;58.70
12769;DHT22;6448;48.916;8.990;2023-04-21T06:37:42;10.20;58.70
12769;DHT22;6448;48.916;8.990;2023-04-21T06:38:44;10.20;58.70